sensor_id;sensor_type;location;lat;lon;timestamp;temperature;humidity
25074;DHT22;13066;52.042;5.648;2022-07-29T00:01:19;18.90;72.70
25074;DHT22;13066;52.042;5.648;2022-07-29T00:03:47;18.90;73.00
25074;DHT22;13066;52.042;5.648;2022-07-29T00:06:16;18.90;73.10
25074;DHT22;13066;52.042;5.648;2022-07-29T00:08:44;18.90;74.20
25074;DHT22;13066;52.042;5.648;2022-07-29T00:11:12;18.80;73.40
25074;DHT22;13066;52.042;5.648;2022-07-29T00:13:40;18.80;73.80
25074;DHT22;13066;52.042;5.648;2022-07-29T00:16:16;18.70;73.90
25074;DHT22;13066;52.042;5.648;2022-07-29T00:18:44;18.80;74.20
25074;DHT22;13066;52.042;5.648;2022-07-29T00:21:12;18.70;74.20
25074;DHT22;13066;52.042;5.648;2022-07-29T00:23:40;18.70;74.40
25074;DHT22;13066;52.042;5.648;2022-07-29T00:26:08;18.70;74.60
25074;DHT22;13066;52.042;5.648;2022-07-29T00:28:36;18.70;74.70
25074;DHT22;13066;52.042;5.648;2022-07-29T00:31:04;18.70;75.10
25074;DHT22;13066;52.042;5.648;2022-07-29T00:33:34;18.60;75.20
25074;DHT22;13066;52.042;5.648;2022-07-29T00:36:02;18.60;75.40
25074;DHT22;13066;52.042;5.648;2022-07-29T00:38:29;18.60;75.40
25074;DHT22;13066;52.042;5.648;2022-07-29T00:40:58;18.60;75.60
25074;DHT22;13066;52.042;5.648;2022-07-29T00:43:26;18.60;75.70
25074;DHT22;13066;52.042;5.648;2022-07-29T00:45:54;18.60;75.80
25074;DHT22;13066;52.042;5.648;2022-07-29T00:48:22;18.60;76.00
25074;DHT22;13066;52.042;5.648;2022-07-29T00:50:51;18.50;76.20
25074;DHT22;13066;52.042;5.648;2022-07-29T00:53:20;18.40;76.40
25074;DHT22;13066;52.042;5.648;2022-07-29T00:55:49;18.50;76.70
25074;DHT22;13066;52.042;5.648;2022-07-29T00:58:18;18.40;76.80
25074;DHT22;13066;52.042;5.648;2022-07-29T01:00:46;18.40;76.90
25074;DHT22;13066;52.042;5.648;2022-07-29T01:03:14;18.40;77.00
25074;DHT22;13066;52.042;5.648;2022-07-29T01:05:44;18.40;77.20
25074;DHT22;13066;52.042;5.648;2022-07-29T01:08:18;18.40;77.30
25074;DHT22;13066;52.042;5.648;2022-07-29T01:10:48;18.30;77.30
25074;DHT22;13066;52.042;5.648;2022-07-29T01:13:16;18.30;77.60
25074;DHT22;13066;52.042;5.648;2022-07-29T01:15:49;18.30;77.60
25074;DHT22;13066;52.042;5.648;2022-07-29T01:18:20;18.30;77.70
25074;DHT22;13066;52.042;5.648;2022-07-29T01:21:18;18.20;77.80
25074;DHT22;13066;52.042;5.648;2022-07-29T01:24:11;18.20;78.50
25074;DHT22;13066;52.042;5.648;2022-07-29T01:26:45;18.10;78.70
25074;DHT22;13066;52.042;5.648;2022-07-29T01:29:21;18.10;78.80
25074;DHT22;13066;52.042;5.648;2022-07-29T01:32:07;18.00;79.30
25074;DHT22;13066;52.042;5.648;2022-07-29T01:34:57;18.00;79.40
25074;DHT22;13066;52.042;5.648;2022-07-29T01:37:31;18.00;79.50
25074;DHT22;13066;52.042;5.648;2022-07-29T01:40:02;18.00;79.60
25074;DHT22;13066;52.042;5.648;2022-07-29T01:42:35;18.00;79.70
25074;DHT22;13066;52.042;5.648;2022-07-29T01:45:10;18.00;79.80
25074;DHT22;13066;52.042;5.648;2022-07-29T01:47:43;18.00;79.70
25074;DHT22;13066;52.042;5.648;2022-07-29T01:50:15;18.00;79.80
25074;DHT22;13066;52.042;5.648;2022-07-29T01:52:47;18.00;79.90
25074;DHT22;13066;52.042;5.648;2022-07-29T01:55:18;18.00;80.00
25074;DHT22;13066;52.042;5.648;2022-07-29T01:57:48;18.00;80.00
25074;DHT22;13066;52.042;5.648;2022-07-29T02:00:18;18.00;79.90
25074;DHT22;13066;52.042;5.648;2022-07-29T02:02:48;18.10;80.00
25074;DHT22;13066;52.042;5.648;2022-07-29T02:05:18;18.00;79.90
25074;DHT22;13066;52.042;5.648;2022-07-29T02:07:49;18.10;79.90
25074;DHT22;13066;52.042;5.648;2022-07-29T02:10:21;18.00;79.90
25074;DHT22;13066;52.042;5.648;2022-07-29T02:12:54;18.10;80.00
25074;DHT22;13066;52.042;5.648;2022-07-29T02:15:25;18.10;80.10
25074;DHT22;13066;52.042;5.648;2022-07-29T02:17:56;18.10;80.10
25074;DHT22;13066;52.042;5.648;2022-07-29T02:20:26;18.10;79.90
25074;DHT22;13066;52.042;5.648;2022-07-29T02:22:55;18.10;79.80
25074;DHT22;13066;52.042;5.648;2022-07-29T02:25:26;18.10;79.80
25074;DHT22;13066;52.042;5.648;2022-07-29T02:28:05;18.10;79.80
25074;DHT22;13066;52.042;5.648;2022-07-29T02:30:36;18.20;79.90
25074;DHT22;13066;52.042;5.648;2022-07-29T02:33:08;18.10;79.80
25074;DHT22;13066;52.042;5.648;2022-07-29T02:35:39;18.20;79.80
25074;DHT22;13066;52.042;5.648;2022-07-29T02:38:10;18.10;79.80
25074;DHT22;13066;52.042;5.648;2022-07-29T02:40:56;18.10;79.90
25074;DHT22;13066;52.042;5.648;2022-07-29T02:43:27;18.10;80.30
25074;DHT22;13066;52.042;5.648;2022-07-29T02:45:59;18.10;80.60
25074;DHT22;13066;52.042;5.648;2022-07-29T02:48:34;18.10;80.90
25074;DHT22;13066;52.042;5.648;2022-07-29T02:51:16;18.00;81.10
25074;DHT22;13066;52.042;5.648;2022-07-29T02:54:07;18.00;81.50
25074;DHT22;13066;52.042;5.648;2022-07-29T02:56:39;17.90;82.10
25074;DHT22;13066;52.042;5.648;2022-07-29T02:59:10;17.90;82.50
25074;DHT22;13066;52.042;5.648;2022-07-29T03:01:42;17.90;83.00
25074;DHT22;13066;52.042;5.648;2022-07-29T03:04:12;17.90;83.40
25074;DHT22;13066;52.042;5.648;2022-07-29T03:06:43;17.80;83.60
25074;DHT22;13066;52.042;5.648;2022-07-29T03:09:13;17.80;83.90
25074;DHT22;13066;52.042;5.648;2022-07-29T03:11:42;17.80;84.20
25074;DHT22;13066;52.042;5.648;2022-07-29T03:14:17;17.70;84.30
25074;DHT22;13066;52.042;5.648;2022-07-29T03:16:49;17.70;84.50
25074;DHT22;13066;52.042;5.648;2022-07-29T03:19:19;17.70;84.80
25074;DHT22;13066;52.042;5.648;2022-07-29T03:21:48;17.60;85.30
25074;DHT22;13066;52.042;5.648;2022-07-29T03:24:29;17.60;85.70
25074;DHT22;13066;52.042;5.648;2022-07-29T03:26:58;17.60;86.00
25074;DHT22;13066;52.042;5.648;2022-07-29T03:29:26;17.60;86.80
25074;DHT22;13066;52.042;5.648;2022-07-29T03:32:02;17.60;87.30
25074;DHT22;13066;52.042;5.648;2022-07-29T03:34:34;17.50;87.70
25074;DHT22;13066;52.042;5.648;2022-07-29T03:37:03;17.50;88.20
25074;DHT22;13066;52.042;5.648;2022-07-29T03:39:35;17.40;88.60
25074;DHT22;13066;52.042;5.648;2022-07-29T03:42:05;17.40;89.00
25074;DHT22;13066;52.042;5.648;2022-07-29T03:44:35;17.40;89.30
25074;DHT22;13066;52.042;5.648;2022-07-29T03:47:06;17.30;89.60
25074;DHT22;13066;52.042;5.648;2022-07-29T03:49:36;17.30;90.00
25074;DHT22;13066;52.042;5.648;2022-07-29T03:52:05;17.20;90.10
25074;DHT22;13066;52.042;5.648;2022-07-29T03:54:34;17.20;90.20
25074;DHT22;13066;52.042;5.648;2022-07-29T03:57:03;17.30;90.30
25074;DHT22;13066;52.042;5.648;2022-07-29T03:59:33;17.20;90.40
25074;DHT22;13066;52.042;5.648;2022-07-29T04:02:02;17.20;90.50
25074;DHT22;13066;52.042;5.648;2022-07-29T04:04:33;17.20;90.60
25074;DHT22;13066;52.042;5.648;2022-07-29T04:07:03;17.10;90.70
25074;DHT22;13066;52.042;5.648;2022-07-29T04:09:32;17.10;90.80
25074;DHT22;13066;52.042;5.648;2022-07-29T04:12:00;17.10;91.00
25074;DHT22;13066;52.042;5.648;2022-07-29T04:14:31;17.00;91.10
25074;DHT22;13066;52.042;5.648;2022-07-29T04:16:59;17.00;91.20
25074;DHT22;13066;52.042;5.648;2022-07-29T04:19:28;17.00;91.30
25074;DHT22;13066;52.042;5.648;2022-07-29T04:21:58;17.00;91.70
25074;DHT22;13066;52.042;5.648;2022-07-29T04:24:26;16.90;91.50
25074;DHT22;13066;52.042;5.648;2022-07-29T04:26:55;17.00;91.60
25074;DHT22;13066;52.042;5.648;2022-07-29T04:29:23;17.00;91.60
25074;DHT22;13066;52.042;5.648;2022-07-29T04:31:51;17.00;91.50
25074;DHT22;13066;52.042;5.648;2022-07-29T04:34:19;17.00;91.50
25074;DHT22;13066;52.042;5.648;2022-07-29T04:36:47;17.00;91.60
25074;DHT22;13066;52.042;5.648;2022-07-29T04:39:17;17.00;91.60
25074;DHT22;13066;52.042;5.648;2022-07-29T04:41:49;16.90;91.60
25074;DHT22;13066;52.042;5.648;2022-07-29T04:44:20;16.90;91.60
25074;DHT22;13066;52.042;5.648;2022-07-29T04:46:55;16.90;91.60
25074;DHT22;13066;52.042;5.648;2022-07-29T04:49:23;16.90;91.60
25074;DHT22;13066;52.042;5.648;2022-07-29T04:51:52;16.80;91.80
25074;DHT22;13066;52.042;5.648;2022-07-29T04:54:21;16.80;91.80
25074;DHT22;13066;52.042;5.648;2022-07-29T04:56:51;16.80;91.80
25074;DHT22;13066;52.042;5.648;2022-07-29T04:59:19;16.80;91.90
25074;DHT22;13066;52.042;5.648;2022-07-29T05:01:47;16.80;91.90
25074;DHT22;13066;52.042;5.648;2022-07-29T05:04:15;16.70;91.90
25074;DHT22;13066;52.042;5.648;2022-07-29T05:06:44;16.80;92.30
25074;DHT22;13066;52.042;5.648;2022-07-29T05:09:12;16.80;92.00
25074;DHT22;13066;52.042;5.648;2022-07-29T05:11:41;16.80;92.10
25074;DHT22;13066;52.042;5.648;2022-07-29T05:14:10;16.80;92.10
25074;DHT22;13066;52.042;5.648;2022-07-29T05:16:38;16.80;92.10
25074;DHT22;13066;52.042;5.648;2022-07-29T05:19:07;16.90;92.10
25074;DHT22;13066;52.042;5.648;2022-07-29T05:21:40;16.90;92.00
25074;DHT22;13066;52.042;5.648;2022-07-29T05:24:08;16.90;92.00
25074;DHT22;13066;52.042;5.648;2022-07-29T05:26:36;16.90;92.10
25074;DHT22;13066;52.042;5.648;2022-07-29T05:29:06;16.90;92.10
25074;DHT22;13066;52.042;5.648;2022-07-29T05:31:54;16.90;92.20
25074;DHT22;13066;52.042;5.648;2022-07-29T05:34:22;16.90;92.20
25074;DHT22;13066;52.042;5.648;2022-07-29T05:36:51;16.90;92.20
25074;DHT22;13066;52.042;5.648;2022-07-29T05:39:20;16.90;92.20
25074;DHT22;13066;52.042;5.648;2022-07-29T05:42:08;17.00;92.10
25074;DHT22;13066;52.042;5.648;2022-07-29T05:44:39;17.00;92.10
25074;DHT22;13066;52.042;5.648;2022-07-29T05:47:07;17.00;92.10
25074;DHT22;13066;52.042;5.648;2022-07-29T05:49:35;17.00;92.10
25074;DHT22;13066;52.042;5.648;2022-07-29T05:52:04;17.00;92.10
25074;DHT22;13066;52.042;5.648;2022-07-29T05:54:32;17.10;92.10
25074;DHT22;13066;52.042;5.648;2022-07-29T05:57:00;17.10;92.10
25074;DHT22;13066;52.042;5.648;2022-07-29T05:59:29;17.10;92.10
25074;DHT22;13066;52.042;5.648;2022-07-29T06:01:58;17.20;92.00
25074;DHT22;13066;52.042;5.648;2022-07-29T06:04:26;17.20;92.00
25074;DHT22;13066;52.042;5.648;2022-07-29T06:06:55;17.30;92.00
25074;DHT22;13066;52.042;5.648;2022-07-29T06:09:23;17.30;91.90
25074;DHT22;13066;52.042;5.648;2022-07-29T06:11:51;17.30;91.90
25074;DHT22;13066;52.042;5.648;2022-07-29T06:14:19;17.40;91.80
25074;DHT22;13066;52.042;5.648;2022-07-29T06:16:47;17.40;91.70
25074;DHT22;13066;52.042;5.648;2022-07-29T06:19:17;17.50;91.70
25074;DHT22;13066;52.042;5.648;2022-07-29T06:21:46;17.50;91.60
25074;DHT22;13066;52.042;5.648;2022-07-29T06:24:15;17.50;91.60
25074;DHT22;13066;52.042;5.648;2022-07-29T06:26:44;17.50;91.50
25074;DHT22;13066;52.042;5.648;2022-07-29T06:29:12;17.60;91.50
25074;DHT22;13066;52.042;5.648;2022-07-29T06:31:40;17.60;91.50
25074;DHT22;13066;52.042;5.648;2022-07-29T06:34:08;17.60;91.40
25074;DHT22;13066;52.042;5.648;2022-07-29T06:36:39;17.70;91.30
25074;DHT22;13066;52.042;5.648;2022-07-29T06:39:07;17.70;91.60
25074;DHT22;13066;52.042;5.648;2022-07-29T06:41:37;17.70;91.20
25074;DHT22;13066;52.042;5.648;2022-07-29T06:44:06;17.80;91.20
25074;DHT22;13066;52.042;5.648;2022-07-29T06:46:34;17.80;91.20
25074;DHT22;13066;52.042;5.648;2022-07-29T06:49:02;17.80;91.20
25074;DHT22;13066;52.042;5.648;2022-07-29T06:51:30;17.80;91.20
25074;DHT22;13066;52.042;5.648;2022-07-29T06:54:00;17.90;91.10
25074;DHT22;13066;52.042;5.648;2022-07-29T06:56:29;17.90;91.10
25074;DHT22;13066;52.042;5.648;2022-07-29T06:59:06;17.90;91.10
25074;DHT22;13066;52.042;5.648;2022-07-29T07:01:35;17.90;91.00
25074;DHT22;13066;52.042;5.648;2022-07-29T07:04:03;18.00;90.90
25074;DHT22;13066;52.042;5.648;2022-07-29T07:06:31;18.00;90.90
25074;DHT22;13066;52.042;5.648;2022-07-29T07:09:01;18.00;90.80
25074;DHT22;13066;52.042;5.648;2022-07-29T07:11:29;18.10;90.70
25074;DHT22;13066;52.042;5.648;2022-07-29T07:13:58;18.10;91.00
25074;DHT22;13066;52.042;5.648;2022-07-29T07:16:30;18.10;90.60
25074;DHT22;13066;52.042;5.648;2022-07-29T07:18:58;18.20;90.60
25074;DHT22;13066;52.042;5.648;2022-07-29T07:21:26;18.20;90.60
25074;DHT22;13066;52.042;5.648;2022-07-29T07:23:56;18.30;90.50
25074;DHT22;13066;52.042;5.648;2022-07-29T07:26:26;18.20;90.40
25074;DHT22;13066;52.042;5.648;2022-07-29T07:28:54;18.30;90.40
25074;DHT22;13066;52.042;5.648;2022-07-29T07:31:23;18.30;90.40
25074;DHT22;13066;52.042;5.648;2022-07-29T07:33:51;18.40;90.20
25074;DHT22;13066;52.042;5.648;2022-07-29T07:36:20;18.40;90.20
25074;DHT22;13066;52.042;5.648;2022-07-29T07:38:48;18.40;90.10
25074;DHT22;13066;52.042;5.648;2022-07-29T07:41:17;18.50;90.00
25074;DHT22;13066;52.042;5.648;2022-07-29T07:43:46;18.50;89.90
25074;DHT22;13066;52.042;5.648;2022-07-29T07:46:15;18.50;89.80
25074;DHT22;13066;52.042;5.648;2022-07-29T07:48:43;18.50;89.60
25074;DHT22;13066;52.042;5.648;2022-07-29T07:51:11;18.60;89.60
25074;DHT22;13066;52.042;5.648;2022-07-29T07:53:39;18.60;89.50
25074;DHT22;13066;52.042;5.648;2022-07-29T07:56:08;18.70;89.20
25074;DHT22;13066;52.042;5.648;2022-07-29T07:58:38;18.80;89.10
25074;DHT22;13066;52.042;5.648;2022-07-29T08:01:07;18.80;89.00
25074;DHT22;13066;52.042;5.648;2022-07-29T08:03:36;18.80;88.60
25074;DHT22;13066;52.042;5.648;2022-07-29T08:06:05;18.80;88.40
25074;DHT22;13066;52.042;5.648;2022-07-29T08:08:33;18.90;88.50
25074;DHT22;13066;52.042;5.648;2022-07-29T08:11:01;18.90;88.60
25074;DHT22;13066;52.042;5.648;2022-07-29T08:13:36;18.90;88.70
25074;DHT22;13066;52.042;5.648;2022-07-29T08:16:06;19.00;88.60
25074;DHT22;13066;52.042;5.648;2022-07-29T08:18:43;19.10;88.70
25074;DHT22;13066;52.042;5.648;2022-07-29T08:21:12;19.20;88.60
25074;DHT22;13066;52.042;5.648;2022-07-29T08:23:42;19.20;88.40
25074;DHT22;13066;52.042;5.648;2022-07-29T08:26:24;19.30;88.00
25074;DHT22;13066;52.042;5.648;2022-07-29T08:28:52;19.40;87.80
25074;DHT22;13066;52.042;5.648;2022-07-29T08:31:22;19.50;87.50
25074;DHT22;13066;52.042;5.648;2022-07-29T08:33:50;19.60;87.10
25074;DHT22;13066;52.042;5.648;2022-07-29T08:36:18;19.60;87.20
25074;DHT22;13066;52.042;5.648;2022-07-29T08:38:47;19.80;87.10
25074;DHT22;13066;52.042;5.648;2022-07-29T08:41:16;19.90;86.90
25074;DHT22;13066;52.042;5.648;2022-07-29T08:43:46;20.00;86.50
25074;DHT22;13066;52.042;5.648;2022-07-29T08:46:14;20.10;85.90
25074;DHT22;13066;52.042;5.648;2022-07-29T08:48:45;20.20;85.80
25074;DHT22;13066;52.042;5.648;2022-07-29T08:51:15;20.30;85.10
25074;DHT22;13066;52.042;5.648;2022-07-29T08:53:46;20.40;84.20
25074;DHT22;13066;52.042;5.648;2022-07-29T08:56:15;20.50;83.80
25074;DHT22;13066;52.042;5.648;2022-07-29T08:58:46;20.60;83.00
25074;DHT22;13066;52.042;5.648;2022-07-29T09:01:22;20.70;82.40
25074;DHT22;13066;52.042;5.648;2022-07-29T09:04:10;20.80;82.00
25074;DHT22;13066;52.042;5.648;2022-07-29T09:06:43;20.90;81.90
25074;DHT22;13066;52.042;5.648;2022-07-29T09:09:12;20.90;82.70
25074;DHT22;13066;52.042;5.648;2022-07-29T09:11:42;21.00;81.90
25074;DHT22;13066;52.042;5.648;2022-07-29T09:14:11;21.10;81.90
25074;DHT22;13066;52.042;5.648;2022-07-29T09:16:54;21.20;82.00
25074;DHT22;13066;52.042;5.648;2022-07-29T09:19:26;21.30;80.70
25074;DHT22;13066;52.042;5.648;2022-07-29T09:21:55;21.30;80.20
25074;DHT22;13066;52.042;5.648;2022-07-29T09:24:40;21.40;79.80
25074;DHT22;13066;52.042;5.648;2022-07-29T09:27:11;21.50;79.20
25074;DHT22;13066;52.042;5.648;2022-07-29T09:29:45;21.60;78.80
25074;DHT22;13066;52.042;5.648;2022-07-29T09:32:13;21.70;78.40
25074;DHT22;13066;52.042;5.648;2022-07-29T09:34:43;21.90;78.10
25074;DHT22;13066;52.042;5.648;2022-07-29T09:37:11;22.00;77.60
25074;DHT22;13066;52.042;5.648;2022-07-29T09:39:53;22.10;76.80
25074;DHT22;13066;52.042;5.648;2022-07-29T09:42:30;22.20;76.70
25074;DHT22;13066;52.042;5.648;2022-07-29T09:45:00;22.30;76.50
25074;DHT22;13066;52.042;5.648;2022-07-29T09:47:44;22.50;75.90
25074;DHT22;13066;52.042;5.648;2022-07-29T09:50:17;22.60;75.20
25074;DHT22;13066;52.042;5.648;2022-07-29T09:52:50;22.60;74.40
25074;DHT22;13066;52.042;5.648;2022-07-29T09:55:19;22.70;74.00
25074;DHT22;13066;52.042;5.648;2022-07-29T09:57:47;22.80;74.10
25074;DHT22;13066;52.042;5.648;2022-07-29T10:00:17;22.90;73.80
25074;DHT22;13066;52.042;5.648;2022-07-29T10:02:46;23.10;73.80
25074;DHT22;13066;52.042;5.648;2022-07-29T10:05:20;23.20;73.90
25074;DHT22;13066;52.042;5.648;2022-07-29T10:07:49;23.30;72.80
25074;DHT22;13066;52.042;5.648;2022-07-29T10:10:22;23.40;72.50
25074;DHT22;13066;52.042;5.648;2022-07-29T10:12:54;23.50;72.40
25074;DHT22;13066;52.042;5.648;2022-07-29T10:15:23;23.70;71.70
25074;DHT22;13066;52.042;5.648;2022-07-29T10:17:52;23.80;70.00
25074;DHT22;13066;52.042;5.648;2022-07-29T10:20:23;23.90;68.10
25074;DHT22;13066;52.042;5.648;2022-07-29T10:22:51;24.00;67.20
25074;DHT22;13066;52.042;5.648;2022-07-29T10:25:21;24.10;66.90
25074;DHT22;13066;52.042;5.648;2022-07-29T10:27:50;24.10;66.10
25074;DHT22;13066;52.042;5.648;2022-07-29T10:30:20;24.10;65.70
25074;DHT22;13066;52.042;5.648;2022-07-29T10:33:05;24.10;65.70
25074;DHT22;13066;52.042;5.648;2022-07-29T10:35:54;24.10;64.80
25074;DHT22;13066;52.042;5.648;2022-07-29T10:38:44;24.10;64.40
25074;DHT22;13066;52.042;5.648;2022-07-29T10:44:54;24.00;64.50
25074;DHT22;13066;52.042;5.648;2022-07-29T10:47:26;23.90;65.70
25074;DHT22;13066;52.042;5.648;2022-07-29T10:49:56;23.90;65.50
25074;DHT22;13066;52.042;5.648;2022-07-29T10:52:55;23.90;64.90
25074;DHT22;13066;52.042;5.648;2022-07-29T10:55:31;24.00;64.10
25074;DHT22;13066;52.042;5.648;2022-07-29T10:58:12;23.90;64.40
25074;DHT22;13066;52.042;5.648;2022-07-29T11:00:40;24.00;64.90
25074;DHT22;13066;52.042;5.648;2022-07-29T11:03:45;23.90;64.60
25074;DHT22;13066;52.042;5.648;2022-07-29T11:07:06;24.00;65.10
25074;DHT22;13066;52.042;5.648;2022-07-29T11:09:36;24.00;66.10
25074;DHT22;13066;52.042;5.648;2022-07-29T11:15:13;24.30;64.60
25074;DHT22;13066;52.042;5.648;2022-07-29T11:18:08;24.30;64.40
25074;DHT22;13066;52.042;5.648;2022-07-29T11:20:42;24.50;64.30
25074;DHT22;13066;52.042;5.648;2022-07-29T11:23:22;24.50;63.30
25074;DHT22;13066;52.042;5.648;2022-07-29T11:26:19;24.60;62.40
25074;DHT22;13066;52.042;5.648;2022-07-29T11:28:53;24.70;61.70
25074;DHT22;13066;52.042;5.648;2022-07-29T11:31:38;24.70;61.90
25074;DHT22;13066;52.042;5.648;2022-07-29T11:34:23;24.80;63.00
25074;DHT22;13066;52.042;5.648;2022-07-29T11:37:22;24.80;62.40
25074;DHT22;13066;52.042;5.648;2022-07-29T11:40:16;24.80;62.40
25074;DHT22;13066;52.042;5.648;2022-07-29T11:42:50;24.80;62.70
25074;DHT22;13066;52.042;5.648;2022-07-29T11:45:31;24.90;62.80
25074;DHT22;13066;52.042;5.648;2022-07-29T11:48:16;24.90;62.80
25074;DHT22;13066;52.042;5.648;2022-07-29T11:50:58;24.90;62.30
25074;DHT22;13066;52.042;5.648;2022-07-29T11:53:27;25.00;62.60
25074;DHT22;13066;52.042;5.648;2022-07-29T11:55:59;25.00;62.50
25074;DHT22;13066;52.042;5.648;2022-07-29T11:58:31;25.00;62.10
25074;DHT22;13066;52.042;5.648;2022-07-29T12:00:59;25.10;61.80
25074;DHT22;13066;52.042;5.648;2022-07-29T12:04:01;25.10;62.10
25074;DHT22;13066;52.042;5.648;2022-07-29T12:06:32;25.20;62.40
25074;DHT22;13066;52.042;5.648;2022-07-29T12:09:05;25.20;62.40
25074;DHT22;13066;52.042;5.648;2022-07-29T12:11:40;25.30;63.30
25074;DHT22;13066;52.042;5.648;2022-07-29T12:14:26;25.30;62.60
25074;DHT22;13066;52.042;5.648;2022-07-29T12:16:55;25.30;62.80
25074;DHT22;13066;52.042;5.648;2022-07-29T12:19:24;25.40;62.90
25074;DHT22;13066;52.042;5.648;2022-07-29T12:21:54;25.40;62.70
25074;DHT22;13066;52.042;5.648;2022-07-29T12:24:42;25.50;62.30
25074;DHT22;13066;52.042;5.648;2022-07-29T12:27:10;25.60;61.80
25074;DHT22;13066;52.042;5.648;2022-07-29T12:29:41;25.60;61.50
25074;DHT22;13066;52.042;5.648;2022-07-29T12:32:14;25.60;61.70
25074;DHT22;13066;52.042;5.648;2022-07-29T12:34:45;25.70;61.40
25074;DHT22;13066;52.042;5.648;2022-07-29T12:37:14;25.70;61.00
25074;DHT22;13066;52.042;5.648;2022-07-29T12:39:42;25.80;61.10
25074;DHT22;13066;52.042;5.648;2022-07-29T12:42:12;25.90;60.90
25074;DHT22;13066;52.042;5.648;2022-07-29T12:44:46;26.00;60.30
25074;DHT22;13066;52.042;5.648;2022-07-29T12:47:15;26.00;59.70
25074;DHT22;13066;52.042;5.648;2022-07-29T12:49:45;26.10;59.90
25074;DHT22;13066;52.042;5.648;2022-07-29T12:52:35;26.10;60.30
25074;DHT22;13066;52.042;5.648;2022-07-29T12:55:04;26.20;59.70
25074;DHT22;13066;52.042;5.648;2022-07-29T12:57:45;26.10;59.40
25074;DHT22;13066;52.042;5.648;2022-07-29T13:00:15;26.20;59.10
25074;DHT22;13066;52.042;5.648;2022-07-29T13:03:03;26.20;59.00
25074;DHT22;13066;52.042;5.648;2022-07-29T13:05:40;26.20;59.00
25074;DHT22;13066;52.042;5.648;2022-07-29T13:08:16;26.30;60.00
25074;DHT22;13066;52.042;5.648;2022-07-29T13:10:48;26.30;59.30
25074;DHT22;13066;52.042;5.648;2022-07-29T13:13:16;26.30;59.00
25074;DHT22;13066;52.042;5.648;2022-07-29T13:15:46;26.40;59.10
25074;DHT22;13066;52.042;5.648;2022-07-29T13:18:33;26.40;59.10
25074;DHT22;13066;52.042;5.648;2022-07-29T13:21:11;26.30;59.90
25074;DHT22;13066;52.042;5.648;2022-07-29T13:23:39;26.40;59.80
25074;DHT22;13066;52.042;5.648;2022-07-29T13:26:08;26.40;59.70
25074;DHT22;13066;52.042;5.648;2022-07-29T13:28:38;26.50;59.20
25074;DHT22;13066;52.042;5.648;2022-07-29T13:31:11;26.50;59.20
25074;DHT22;13066;52.042;5.648;2022-07-29T13:33:39;26.50;59.00
25074;DHT22;13066;52.042;5.648;2022-07-29T13:36:07;26.60;59.20
25074;DHT22;13066;52.042;5.648;2022-07-29T13:38:35;26.60;59.20
25074;DHT22;13066;52.042;5.648;2022-07-29T13:41:03;26.70;59.20
25074;DHT22;13066;52.042;5.648;2022-07-29T13:43:32;26.70;59.20
25074;DHT22;13066;52.042;5.648;2022-07-29T13:46:00;26.70;59.00
25074;DHT22;13066;52.042;5.648;2022-07-29T13:48:29;26.80;58.60
25074;DHT22;13066;52.042;5.648;2022-07-29T13:50:57;26.80;58.70
25074;DHT22;13066;52.042;5.648;2022-07-29T13:53:26;26.80;58.70
25074;DHT22;13066;52.042;5.648;2022-07-29T13:55:54;26.80;58.60
25074;DHT22;13066;52.042;5.648;2022-07-29T13:58:22;26.80;58.30
25074;DHT22;13066;52.042;5.648;2022-07-29T14:00:51;26.90;58.40
25074;DHT22;13066;52.042;5.648;2022-07-29T14:03:19;26.90;58.00
25074;DHT22;13066;52.042;5.648;2022-07-29T14:05:48;26.90;57.70
25074;DHT22;13066;52.042;5.648;2022-07-29T14:08:16;26.90;57.50
25074;DHT22;13066;52.042;5.648;2022-07-29T14:10:45;26.90;57.80
25074;DHT22;13066;52.042;5.648;2022-07-29T14:13:13;26.90;57.10
25074;DHT22;13066;52.042;5.648;2022-07-29T14:15:52;26.90;57.00
25074;DHT22;13066;52.042;5.648;2022-07-29T14:18:20;27.00;57.10
25074;DHT22;13066;52.042;5.648;2022-07-29T14:20:49;27.10;56.80
25074;DHT22;13066;52.042;5.648;2022-07-29T14:23:18;27.20;56.70
25074;DHT22;13066;52.042;5.648;2022-07-29T14:25:46;27.20;56.90
25074;DHT22;13066;52.042;5.648;2022-07-29T14:28:15;27.30;56.10
25074;DHT22;13066;52.042;5.648;2022-07-29T14:30:43;27.40;55.50
25074;DHT22;13066;52.042;5.648;2022-07-29T14:33:12;27.50;55.90
25074;DHT22;13066;52.042;5.648;2022-07-29T14:35:40;27.60;54.50
25074;DHT22;13066;52.042;5.648;2022-07-29T14:38:09;27.80;54.10
25074;DHT22;13066;52.042;5.648;2022-07-29T14:40:37;27.90;53.60
25074;DHT22;13066;52.042;5.648;2022-07-29T14:43:05;27.90;52.70
25074;DHT22;13066;52.042;5.648;2022-07-29T14:45:34;27.90;52.70
25074;DHT22;13066;52.042;5.648;2022-07-29T14:48:02;28.10;52.60
25074;DHT22;13066;52.042;5.648;2022-07-29T14:50:30;28.10;52.10
25074;DHT22;13066;52.042;5.648;2022-07-29T14:52:58;28.10;51.90
25074;DHT22;13066;52.042;5.648;2022-07-29T14:55:28;28.20;51.80
25074;DHT22;13066;52.042;5.648;2022-07-29T14:57:56;28.20;51.60
25074;DHT22;13066;52.042;5.648;2022-07-29T15:00:36;28.30;51.50
25074;DHT22;13066;52.042;5.648;2022-07-29T15:03:05;28.40;51.60
25074;DHT22;13066;52.042;5.648;2022-07-29T15:05:37;28.50;51.30
25074;DHT22;13066;52.042;5.648;2022-07-29T15:08:05;28.80;50.80
25074;DHT22;13066;52.042;5.648;2022-07-29T15:10:36;29.00;50.00
25074;DHT22;13066;52.042;5.648;2022-07-29T15:13:04;29.30;50.10
25074;DHT22;13066;52.042;5.648;2022-07-29T15:15:32;29.40;48.40
25074;DHT22;13066;52.042;5.648;2022-07-29T15:18:00;29.50;48.00
25074;DHT22;13066;52.042;5.648;2022-07-29T15:20:28;29.60;47.80
25074;DHT22;13066;52.042;5.648;2022-07-29T15:22:56;29.60;46.90
25074;DHT22;13066;52.042;5.648;2022-07-29T15:25:26;29.60;46.90
25074;DHT22;13066;52.042;5.648;2022-07-29T15:27:56;29.70;46.70
25074;DHT22;13066;52.042;5.648;2022-07-29T15:30:29;29.80;46.30
25074;DHT22;13066;52.042;5.648;2022-07-29T15:33:00;29.90;46.20
25074;DHT22;13066;52.042;5.648;2022-07-29T15:35:29;30.00;46.10
25074;DHT22;13066;52.042;5.648;2022-07-29T15:37:57;30.10;45.70
25074;DHT22;13066;52.042;5.648;2022-07-29T15:40:25;30.00;45.50
25074;DHT22;13066;52.042;5.648;2022-07-29T15:42:53;30.00;45.80
25074;DHT22;13066;52.042;5.648;2022-07-29T15:45:23;30.10;45.20
25074;DHT22;13066;52.042;5.648;2022-07-29T15:47:57;30.10;45.20
25074;DHT22;13066;52.042;5.648;2022-07-29T15:50:25;30.00;44.80
25074;DHT22;13066;52.042;5.648;2022-07-29T15:52:53;29.90;44.80
25074;DHT22;13066;52.042;5.648;2022-07-29T15:55:21;29.70;44.80
25074;DHT22;13066;52.042;5.648;2022-07-29T15:57:50;29.60;45.30
25074;DHT22;13066;52.042;5.648;2022-07-29T16:00:25;29.50;45.80
25074;DHT22;13066;52.042;5.648;2022-07-29T16:02:53;29.40;46.20
25074;DHT22;13066;52.042;5.648;2022-07-29T16:05:21;29.40;46.00